createdAt,value
2023-04-11T00:01:55.195Z,12.56
2023-04-11T00:04:59.882Z,12.68
2023-04-11T00:08:04.681Z,12.68
2023-04-11T00:11:08.836Z,12.70
2023-04-11T00:14:13.223Z,12.56
2023-04-11T00:17:18.821Z,12.67
2023-04-11T00:20:23.603Z,12.83
2023-04-11T00:23:28.253Z,12.87
2023-04-11T00:26:33.120Z,13.31
2023-04-11T00:29:37.690Z,13.98
2023-04-11T00:32:42.131Z,14.13
2023-04-11T00:35:46.796Z,14.25
2023-04-11T00:38:50.952Z,14.14
2023-04-11T00:41:54.932Z,14.34
2023-04-11T00:44:58.820Z,14.46
2023-04-11T00:48:03.460Z,14.15
2023-04-11T00:51:09.109Z,14.08
2023-04-11T00:54:14.101Z,13.93
2023-04-11T00:57:19.237Z,13.92
2023-04-11T01:00:24.106Z,13.90
2023-04-11T01:03:28.926Z,13.99
2023-04-11T01:06:34.446Z,13.99
2023-04-11T01:09:47.347Z,13.93
2023-04-11T01:12:52.836Z,13.99
2023-04-11T01:15:57.271Z,14.01
2023-04-11T01:19:02.036Z,14.04
2023-04-11T01:22:06.611Z,14.30
2023-04-11T01:25:11.476Z,14.21
2023-04-11T01:28:16.433Z,14.33
2023-04-11T01:31:21.724Z,14.50
2023-04-11T01:34:29.123Z,14.48
2023-04-11T01:37:34.440Z,14.33
2023-04-11T01:40:40.250Z,14.44
2023-04-11T01:43:45.400Z,14.51
2023-04-11T01:46:49.808Z,14.24
2023-04-11T01:49:54.528Z,14.11
2023-04-11T01:52:58.557Z,14.18
2023-04-11T01:56:02.894Z,14.14
2023-04-11T01:59:07.196Z,14.02
2023-04-11T02:02:11.269Z,14.00
2023-04-11T02:05:15.732Z,14.09
2023-04-11T02:08:20.132Z,14.02
2023-04-11T02:11:24.892Z,13.99
2023-04-11T02:14:39.810Z,13.80
2023-04-11T02:17:47.193Z,13.73
2023-04-11T02:20:51.072Z,13.46
2023-04-11T02:23:55.436Z,13.38
2023-04-11T02:26:59.960Z,13.60
2023-04-11T02:30:06.797Z,13.78
2023-04-11T02:33:10.541Z,13.96
2023-04-11T02:36:15.285Z,14.10
2023-04-11T02:39:25.030Z,14.53
2023-04-11T02:42:29.530Z,14.58
2023-04-11T02:45:33.728Z,14.80
2023-04-11T02:48:38.253Z,14.65
2023-04-11T02:51:42.240Z,14.70
2023-04-11T02:54:46.984Z,14.65
2023-04-11T02:57:51.535Z,14.67
2023-04-11T03:00:57.731Z,14.70
2023-04-11T03:04:02.303Z,14.70
2023-04-11T03:07:27.913Z,14.75
2023-04-11T03:10:34.181Z,14.45
2023-04-11T03:13:40.190Z,14.25
2023-04-11T03:16:44.141Z,14.02
2023-04-11T03:19:49.187Z,13.80
2023-04-11T03:22:53.846Z,13.66
2023-04-11T03:25:59.259Z,13.88
2023-04-11T03:29:05.016Z,13.90
2023-04-11T03:32:17.916Z,14.21
2023-04-11T03:35:22.427Z,14.42
2023-04-11T03:38:28.207Z,14.18
2023-04-11T03:41:32.503Z,14.42
2023-04-11T03:44:36.608Z,14.57
2023-04-11T03:47:41.440Z,14.81
2023-04-11T03:50:47.005Z,14.96
2023-04-11T03:53:55.164Z,14.96
2023-04-11T03:57:07.292Z,15.15
2023-04-11T04:00:12.984Z,15.40
2023-04-11T04:03:20.320Z,15.44
2023-04-11T04:06:25.539Z,15.37
2023-04-11T04:09:30.851Z,15.36
2023-04-11T04:12:35.641Z,15.27
2023-04-11T04:15:55.361Z,15.34
2023-04-11T04:19:04.002Z,15.23
2023-04-11T04:22:14.053Z,15.46
2023-04-11T04:25:25.928Z,15.30
2023-04-11T04:28:31.923Z,15.48
2023-04-11T04:31:39.149Z,15.60
2023-04-11T04:34:50.068Z,15.89
2023-04-11T04:38:07.054Z,15.63
2023-04-11T04:41:23.750Z,15.68
2023-04-11T04:44:36.229Z,15.87
2023-04-11T04:47:50.463Z,15.97
2023-04-11T04:50:55.147Z,15.99
2023-04-11T04:54:00.504Z,16.04
2023-04-11T04:57:05.249Z,16.00
2023-04-11T05:00:12.429Z,15.92
2023-04-11T05:03:21.811Z,15.99
2023-04-11T05:06:35.043Z,15.74
2023-04-11T05:09:40.203Z,16.11
2023-04-11T05:12:50.265Z,16.18
2023-04-11T05:15:55.198Z,16.12
2023-04-11T05:19:02.592Z,16.26
2023-04-11T05:22:09.890Z,16.36
2023-04-11T05:25:19.955Z,16.31
2023-04-11T05:28:25.005Z,16.53
2023-04-11T05:31:31.727Z,16.41
2023-04-11T05:34:58.792Z,16.47
2023-04-11T05:38:23.113Z,16.39
2023-04-11T05:41:28.012Z,16.45
2023-04-11T05:44:32.364Z,16.48
2023-04-11T05:47:36.666Z,16.38
2023-04-11T05:50:40.969Z,16.34
2023-04-11T05:53:45.773Z,16.68
2023-04-11T05:56:50.499Z,17.00
2023-04-11T05:59:55.038Z,17.13
2023-04-11T06:03:03.749Z,17.25
2023-04-11T06:06:08.680Z,17.88
2023-04-11T06:09:13.229Z,18.15
2023-04-11T06:12:17.604Z,18.42
2023-04-11T06:15:23.986Z,18.54
2023-04-11T06:18:28.451Z,18.25
2023-04-11T06:21:33.142Z,18.20
2023-04-11T06:24:39.605Z,18.31
2023-04-11T06:27:44.328Z,18.27
2023-04-11T06:30:51.539Z,18.05
2023-04-11T06:33:56.804Z,18.14
2023-04-11T06:37:01.855Z,17.91
2023-04-11T06:40:09.336Z,17.64
2023-04-11T06:43:13.442Z,17.51
2023-04-11T06:46:18.184Z,17.40
2023-04-11T06:49:22.744Z,17.24
2023-04-11T06:52:28.264Z,17.17
2023-04-11T06:55:32.876Z,16.98
2023-04-11T06:58:37.699Z,16.84
2023-04-11T07:01:42.363Z,16.86
2023-04-11T07:04:47.134Z,16.56
2023-04-11T07:07:51.638Z,16.64
2023-04-11T07:10:56.092Z,16.54
2023-04-11T07:14:01.946Z,16.58
2023-04-11T07:17:06.048Z,16.38
2023-04-11T07:20:10.960Z,16.52
2023-04-11T07:23:15.560Z,16.20
2023-04-11T07:26:20.087Z,15.95
2023-04-11T07:29:24.065Z,13.10
2023-04-11T07:32:28.530Z,11.87
2023-04-11T07:35:35.408Z,11.31
2023-04-11T07:38:39.655Z,11.25
2023-04-11T07:41:43.677Z,10.80
2023-04-11T07:44:47.585Z,10.61
2023-04-11T07:47:51.715Z,10.48
2023-04-11T07:50:56.248Z,10.15
2023-04-11T07:54:01.014Z,9.99
2023-04-11T07:57:05.505Z,10.09
2023-04-11T08:00:11.826Z,10.22
2023-04-11T08:03:17.572Z,10.17
2023-04-11T08:06:22.505Z,10.43
2023-04-11T08:09:28.614Z,10.08
2023-04-11T08:12:34.167Z,9.85
2023-04-11T08:15:39.584Z,10.17
2023-04-11T08:18:46.480Z,10.09
2023-04-11T08:21:50.451Z,9.63
2023-04-11T08:24:57.440Z,9.58
2023-04-11T08:28:02.217Z,9.51
2023-04-11T08:31:07.881Z,9.60
2023-04-11T08:34:12.581Z,9.55
2023-04-11T08:37:16.851Z,9.49
2023-04-11T08:40:21.175Z,9.21
2023-04-11T08:43:26.973Z,9.17
2023-04-11T08:46:34.666Z,9.04
2023-04-11T08:49:38.563Z,8.93
2023-04-11T08:52:46.619Z,9.06
2023-04-11T08:55:52.848Z,9.52
2023-04-11T08:58:57.308Z,9.27
2023-04-11T09:02:12.220Z,9.41
2023-04-11T09:05:31.072Z,9.34
2023-04-11T09:08:40.455Z,9.34
2023-04-11T09:11:57.052Z,9.14
2023-04-11T09:15:22.168Z,9.12
2023-04-11T09:18:39.676Z,8.98
2023-04-11T09:21:53.143Z,9.04
2023-04-11T09:25:04.512Z,8.87
2023-04-11T09:28:11.636Z,9.06
2023-04-11T09:31:16.642Z,9.11
2023-04-11T09:34:28.598Z,9.14
2023-04-11T09:37:47.567Z,8.97
2023-04-11T09:40:52.278Z,8.87
2023-04-11T09:43:57.395Z,8.82
2023-04-11T09:47:02.188Z,8.51
2023-04-11T09:50:08.068Z,8.81
2023-04-11T09:53:14.478Z,8.80
2023-04-11T09:56:18.997Z,8.67
2023-04-11T09:59:23.942Z,8.26
2023-04-11T10:02:27.876Z,8.56
2023-04-11T10:05:32.788Z,8.54
2023-04-11T10:08:38.783Z,8.42
2023-04-11T10:11:46.992Z,8.30
2023-04-11T10:14:51.830Z,7.96
2023-04-11T10:18:13.317Z,7.88
2023-04-11T10:21:37.349Z,7.89
2023-04-11T10:24:41.803Z,7.89
2023-04-11T10:27:54.412Z,7.81
2023-04-11T10:31:18.126Z,7.68
2023-04-11T10:34:22.424Z,7.63
2023-04-11T10:37:35.162Z,7.78
2023-04-11T10:41:19.398Z,7.76
2023-04-11T10:44:25.594Z,7.87
2023-04-11T10:47:30.353Z,7.74
2023-04-11T10:50:42.793Z,7.61
2023-04-11T10:53:48.352Z,7.50
2023-04-11T10:56:56.383Z,7.26
2023-04-11T11:00:16.628Z,7.28
2023-04-11T11:03:27.568Z,7.49
2023-04-11T11:06:46.068Z,7.17
2023-04-11T11:09:54.978Z,7.04
2023-04-11T11:12:59.325Z,7.35
2023-04-11T11:16:04.356Z,7.32
2023-04-11T11:19:10.794Z,7.31
2023-04-11T11:22:19.289Z,7.36
2023-04-11T11:25:26.304Z,7.32
2023-04-11T11:28:30.846Z,7.36
2023-04-11T11:31:48.729Z,7.53
2023-04-11T11:34:56.343Z,7.51
2023-04-11T11:38:05.447Z,7.46
2023-04-11T11:41:10.015Z,7.29
2023-04-11T11:44:24.825Z,7.24
2023-04-11T11:47:29.357Z,7.19
2023-04-11T11:50:34.945Z,7.15
2023-04-11T11:53:38.881Z,7.12
2023-04-11T11:56:50.556Z,7.02
2023-04-11T11:59:56.992Z,6.94
2023-04-11T12:03:09.223Z,7.00
2023-04-11T12:06:14.370Z,6.55
2023-04-11T12:09:18.375Z,6.36
2023-04-11T12:12:22.769Z,6.36
2023-04-11T12:15:26.925Z,6.57
2023-04-11T12:18:33.008Z,6.70
2023-04-11T12:21:37.820Z,6.59
2023-04-11T12:24:42.394Z,6.32
2023-04-11T12:27:47.887Z,6.34
2023-04-11T12:30:55.576Z,6.22
2023-04-11T12:34:01.440Z,6.21
2023-04-11T12:37:07.331Z,6.05
2023-04-11T12:40:13.319Z,6.05
2023-04-11T12:43:17.994Z,6.23
2023-04-11T12:46:23.072Z,6.39
2023-04-11T12:49:29.135Z,6.25
2023-04-11T12:52:34.218Z,5.98
2023-04-11T12:55:40.165Z,5.89
2023-04-11T12:58:46.791Z,5.98
2023-04-11T13:01:51.414Z,5.82
2023-04-11T13:04:55.660Z,5.85
2023-04-11T13:08:00.386Z,6.32
2023-04-11T13:11:04.918Z,6.43
2023-04-11T13:14:09.558Z,6.59
2023-04-11T13:17:14.223Z,6.58
2023-04-11T13:20:20.247Z,6.61
2023-04-11T13:23:24.846Z,6.60
2023-04-11T13:26:29.590Z,6.39
2023-04-11T13:29:35.511Z,6.36
2023-04-11T13:32:40.056Z,6.40
2023-04-11T13:35:44.798Z,6.58
2023-04-11T13:38:52.119Z,6.59
2023-04-11T13:41:56.775Z,6.47
2023-04-11T13:45:00.656Z,6.63
2023-04-11T13:48:05.662Z,6.53
2023-04-11T13:51:10.596Z,6.75
2023-04-11T13:54:15.023Z,6.81
2023-04-11T13:57:19.724Z,6.85
2023-04-11T14:00:24.677Z,6.63
2023-04-11T14:03:35.232Z,6.49
2023-04-11T14:06:41.253Z,6.34
2023-04-11T14:09:45.800Z,6.33
2023-04-11T14:12:49.728Z,6.39
2023-04-11T14:16:07.415Z,6.46
2023-04-11T14:19:13.828Z,6.55
2023-04-11T14:22:18.283Z,6.57
2023-04-11T14:25:23.347Z,6.60
2023-04-11T14:28:28.000Z,6.59
2023-04-11T14:31:32.749Z,6.55
2023-04-11T14:34:37.519Z,6.58
2023-04-11T14:37:42.283Z,6.59
2023-04-11T14:40:46.957Z,6.51
2023-04-11T14:43:52.073Z,6.48
2023-04-11T14:46:56.627Z,6.45
2023-04-11T14:50:01.817Z,6.37
2023-04-11T14:53:07.367Z,6.02
2023-04-11T14:56:11.952Z,6.19
2023-04-11T14:59:16.208Z,6.23
2023-04-11T15:02:20.985Z,6.15
2023-04-11T15:05:25.998Z,6.19
2023-04-11T15:08:30.555Z,6.07
2023-04-11T15:11:35.082Z,5.96
2023-04-11T15:14:39.938Z,5.77
2023-04-11T15:17:48.509Z,5.22
2023-04-11T15:20:53.422Z,4.38
2023-04-11T15:23:58.533Z,4.10
2023-04-11T15:27:03.076Z,3.48
2023-04-11T15:30:09.598Z,3.37
2023-04-11T15:33:14.300Z,3.54
2023-04-11T15:36:19.370Z,3.29
2023-04-11T15:39:24.597Z,2.65
2023-04-11T15:42:29.007Z,2.56
2023-04-11T15:45:36.137Z,2.85
2023-04-11T15:48:40.548Z,3.04
2023-04-11T15:51:47.373Z,2.59
2023-04-11T15:54:51.821Z,2.69
2023-04-11T15:57:56.347Z,2.74
2023-04-11T16:01:03.523Z,2.65
2023-04-11T16:04:08.143Z,2.55
2023-04-11T16:07:12.890Z,2.77
2023-04-11T16:10:17.573Z,2.68
2023-04-11T16:13:21.771Z,2.45
2023-04-11T16:16:26.217Z,2.34
2023-04-11T16:19:31.054Z,2.41
2023-04-11T16:22:36.600Z,2.50
2023-04-11T16:25:41.119Z,2.97
2023-04-11T16:28:45.487Z,2.60
2023-04-11T16:31:50.003Z,2.42
2023-04-11T16:34:55.809Z,2.33
2023-04-11T16:37:59.900Z,2.20
2023-04-11T16:41:04.353Z,2.08
2023-04-11T16:44:18.814Z,1.99
2023-04-11T16:47:26.869Z,2.30
2023-04-11T16:50:31.458Z,2.31
2023-04-11T16:53:36.726Z,2.33
2023-04-11T16:56:41.536Z,2.30
2023-04-11T16:59:46.804Z,2.00
2023-04-11T17:02:51.698Z,2.25
2023-04-11T17:05:55.880Z,2.10
2023-04-11T17:09:00.443Z,2.46
2023-04-11T17:12:05.729Z,2.37
2023-04-11T17:15:10.588Z,2.20
2023-04-11T17:18:15.869Z,2.10
2023-04-11T17:21:20.479Z,1.81
2023-04-11T17:24:26.138Z,2.20
2023-04-11T17:27:31.453Z,1.92
2023-04-11T17:30:36.170Z,1.85
2023-04-11T17:33:40.483Z,1.43
2023-04-11T17:36:46.783Z,1.79
2023-04-11T17:39:51.441Z,1.68
2023-04-11T17:42:58.396Z,1.66
2023-04-11T17:46:02.978Z,1.57
2023-04-11T17:49:07.526Z,1.81
2023-04-11T17:52:12.355Z,1.71
2023-04-11T17:55:19.015Z,1.36
2023-04-11T17:58:23.738Z,1.75
2023-04-11T18:01:32.951Z,1.30
2023-04-11T18:04:36.878Z,1.37
2023-04-11T18:07:42.701Z,1.49
2023-04-11T18:10:47.286Z,1.57
2023-04-11T18:13:52.082Z,1.64
2023-04-11T18:16:56.855Z,1.66
2023-04-11T18:20:02.582Z,1.22
2023-04-11T18:23:06.930Z,1.09
2023-04-11T18:26:11.699Z,1.06
2023-04-11T18:29:16.277Z,1.21
2023-04-11T18:32:22.297Z,1.13
2023-04-11T18:35:28.859Z,0.90
2023-04-11T18:38:33.300Z,1.18
2023-04-11T18:41:37.825Z,1.40
2023-04-11T18:44:44.454Z,1.25
2023-04-11T18:47:49.151Z,0.86
2023-04-11T18:51:04.397Z,0.88
2023-04-11T18:54:09.033Z,0.95
2023-04-11T18:57:14.762Z,1.22
2023-04-11T19:00:19.818Z,1.23
2023-04-11T19:03:25.526Z,1.20
2023-04-11T19:06:29.850Z,1.10
2023-04-11T19:09:33.761Z,0.98
2023-04-11T19:12:38.448Z,0.81
2023-04-11T19:15:43.345Z,1.05
2023-04-11T19:18:47.822Z,1.15
2023-04-11T19:21:52.591Z,0.85
2023-04-11T19:24:57.412Z,0.96
2023-04-11T19:28:01.936Z,0.92
2023-04-11T19:31:05.969Z,1.00
2023-04-11T19:34:10.203Z,1.30
2023-04-11T19:37:17.171Z,1.04
2023-04-11T19:40:24.244Z,1.15
2023-04-11T19:43:28.629Z,1.13
2023-04-11T19:46:32.616Z,1.02
2023-04-11T19:49:36.968Z,0.89
2023-04-11T19:52:42.735Z,0.83
2023-04-11T19:55:51.815Z,0.62
2023-04-11T20:02:12.148Z,0.39
2023-04-11T20:05:20.905Z,0.53
2023-04-11T20:08:31.387Z,0.86
2023-04-11T20:11:37.472Z,0.76
2023-04-11T20:14:42.003Z,0.51
2023-04-11T20:17:47.806Z,0.64
2023-04-11T20:20:52.395Z,0.63
2023-04-11T20:23:56.713Z,0.61
2023-04-11T20:27:01.048Z,0.62
2023-04-11T20:30:08.631Z,0.81
2023-04-11T20:33:13.065Z,0.81
2023-04-11T20:36:17.804Z,0.86
2023-04-11T20:39:22.314Z,0.66
2023-04-11T20:42:26.898Z,0.83
2023-04-11T20:45:33.727Z,0.40
2023-04-11T20:48:38.495Z,0.50
2023-04-11T20:51:44.586Z,0.62
2023-04-11T20:54:49.287Z,0.89
2023-04-11T20:57:54.285Z,1.00
2023-04-11T21:00:58.850Z,0.91
2023-04-11T21:04:03.844Z,0.89
2023-04-11T21:07:08.573Z,0.99
2023-04-11T21:10:13.908Z,0.99
2023-04-11T21:13:18.271Z,1.31
2023-04-11T21:16:22.973Z,1.41
2023-04-11T21:19:27.549Z,1.30
2023-04-11T21:22:31.853Z,1.10
2023-04-11T21:25:38.755Z,0.99
2023-04-11T21:28:43.339Z,1.15
2023-04-11T21:31:47.199Z,1.00
2023-04-11T21:34:51.439Z,1.05
2023-04-11T21:37:55.502Z,1.14
2023-04-11T21:40:59.798Z,1.12
2023-04-11T21:44:04.281Z,0.86
2023-04-11T21:47:08.739Z,0.83
2023-04-11T21:50:13.662Z,0.78
2023-04-11T21:53:18.295Z,0.86
2023-04-11T21:56:22.699Z,0.59
2023-04-11T21:59:27.078Z,0.73
2023-04-11T22:02:31.872Z,0.66
2023-04-11T22:05:36.640Z,1.00
2023-04-11T22:08:41.026Z,0.85
2023-04-11T22:11:45.882Z,0.77
2023-04-11T22:14:53.550Z,0.97
2023-04-11T22:17:57.880Z,1.12
2023-04-11T22:21:03.954Z,1.37
2023-04-11T22:24:10.236Z,1.11
2023-04-11T22:27:14.749Z,1.10
2023-04-11T22:30:19.192Z,1.53
2023-04-11T22:33:23.903Z,1.37
2023-04-11T22:36:36.155Z,1.93
2023-04-11T22:39:41.201Z,1.79
2023-04-11T22:42:47.733Z,1.63
2023-04-11T22:45:54.027Z,1.80
2023-04-11T22:49:01.533Z,2.04
2023-04-11T22:52:06.097Z,2.48
2023-04-11T22:55:11.957Z,1.98
2023-04-11T22:58:16.249Z,1.78
2023-04-11T23:01:20.793Z,2.29
2023-04-11T23:04:25.512Z,1.57
2023-04-11T23:07:33.942Z,1.68
2023-04-11T23:10:39.846Z,1.79
2023-04-11T23:13:44.099Z,1.49
2023-04-11T23:16:48.716Z,1.90
2023-04-11T23:19:53.121Z,2.01
2023-04-11T23:22:59.237Z,2.18
2023-04-11T23:26:03.682Z,1.37
2023-04-11T23:29:08.183Z,2.01
2023-04-11T23:32:12.081Z,2.05
2023-04-11T23:35:18.158Z,1.91
2023-04-11T23:38:24.252Z,1.91
2023-04-11T23:41:31.056Z,2.09
2023-04-11T23:44:35.988Z,2.11
2023-04-11T23:47:40.742Z,1.79
2023-04-11T23:50:45.234Z,1.52
2023-04-11T23:53:49.611Z,1.33
2023-04-11T23:56:54.088Z,1.27
2023-04-11T23:59:59.114Z,1.71
